createdAt,value
2019-06-15T00:03:56.087Z,98362.93
2019-06-15T00:09:17.847Z,98343.68
2019-06-15T00:14:39.498Z,98354.08
2019-06-15T00:20:01.400Z,98355.13
2019-06-15T00:25:26.013Z,98344.73
2019-06-15T00:30:47.484Z,98335.20
2019-06-15T00:36:08.826Z,98329.95
2019-06-15T00:41:30.289Z,98302.66
2019-06-15T00:46:51.706Z,98296.84
2019-06-15T00:52:13.444Z,98289.33
2019-06-15T00:57:35.175Z,98287.14
2019-06-15T01:02:57.205Z,98310.13
2019-06-15T01:08:18.448Z,98276.16
2019-06-15T01:13:40.015Z,98258.44
2019-06-15T01:19:01.922Z,98253.53
2019-06-15T01:24:23.414Z,98272.02
2019-06-15T01:29:45.112Z,98233.16
2019-06-15T01:35:06.636Z,98258.99
2019-06-15T01:40:28.174Z,98250.74
2019-06-15T01:45:49.627Z,98274.01
2019-06-15T01:51:11.158Z,98262.53
2019-06-15T01:56:33.184Z,98249.09
2019-06-15T02:01:54.725Z,98246.73
2019-06-15T02:07:16.183Z,98270.60
2019-06-15T02:12:37.826Z,98255.64
2019-06-15T02:17:59.649Z,98275.50
2019-06-15T02:23:21.125Z,98291.34
2019-06-15T02:28:42.971Z,98288.64
2019-06-15T02:34:04.522Z,98307.60
2019-06-15T02:39:26.352Z,98290.98
2019-06-15T02:44:48.204Z,98306.70
2019-06-15T02:50:10.608Z,98313.62
2019-06-15T02:55:32.520Z,98298.12
2019-06-15T03:01:13.703Z,98327.78
2019-06-15T03:06:35.672Z,98301.08
2019-06-15T03:11:57.513Z,98283.45
2019-06-15T03:17:19.351Z,98331.23
2019-06-15T03:22:40.894Z,98327.65
2019-06-15T03:28:02.543Z,98304.97
2019-06-15T03:33:23.914Z,98379.30
2019-06-15T03:38:45.613Z,98318.33
2019-06-15T03:44:07.254Z,98294.47
2019-06-15T03:49:29.019Z,98316.41
2019-06-15T03:54:50.529Z,98304.48
2019-06-15T04:00:35.296Z,98290.84
2019-06-15T04:05:56.949Z,98288.47
2019-06-15T04:11:18.362Z,98287.10
2019-06-15T04:16:40.257Z,98276.33
2019-06-15T04:22:01.841Z,98272.69
2019-06-15T04:27:23.482Z,98279.47
2019-06-15T04:32:45.207Z,98272.34
2019-06-15T04:38:07.023Z,98249.45
2019-06-15T04:43:28.599Z,98255.61
2019-06-15T04:48:50.678Z,98266.72
2019-06-15T04:54:12.221Z,98263.62
2019-06-15T04:59:34.757Z,98244.56
2019-06-15T05:04:56.367Z,98307.86
2019-06-15T05:10:17.940Z,98258.64
2019-06-15T05:15:39.590Z,98301.83
2019-06-15T05:21:01.537Z,98243.86
2019-06-15T05:26:23.035Z,98316.16
2019-06-15T05:31:44.372Z,98288.64
2019-06-15T05:37:06.168Z,98234.98
2019-06-15T05:42:27.584Z,98272.34
2019-06-15T05:47:49.090Z,98310.86
2019-06-15T05:53:10.746Z,98247.73
2019-06-15T05:58:32.416Z,98387.47
2019-06-15T06:03:53.882Z,98255.64
2019-06-15T06:09:16.780Z,98263.72
2019-06-15T06:14:38.654Z,98351.48
2019-06-15T06:20:00.365Z,98246.88
2019-06-15T06:25:21.985Z,98210.48
2019-06-15T06:30:44.099Z,98267.25
2019-06-15T06:36:06.354Z,98253.41
2019-06-15T06:41:28.251Z,98250.11
2019-06-15T06:46:49.876Z,98217.80
2019-06-15T06:52:11.886Z,98265.36
2019-06-15T06:57:33.115Z,98263.25
2019-06-15T07:02:54.770Z,98262.91
2019-06-15T07:08:16.891Z,98257.44
2019-06-15T07:13:39.021Z,98253.16
2019-06-15T07:19:00.338Z,98248.23
2019-06-15T07:24:22.052Z,98249.63
2019-06-15T07:29:43.913Z,98293.49
2019-06-15T07:35:05.997Z,98253.06
2019-06-15T07:40:27.661Z,98277.63
2019-06-15T07:45:49.327Z,98304.13
2019-06-15T07:51:10.989Z,98305.33
2019-06-15T07:56:32.609Z,98321.75
2019-06-15T08:01:54.237Z,98323.01
2019-06-15T08:07:15.961Z,98341.22
2019-06-15T08:12:37.845Z,98329.38
2019-06-15T08:17:59.755Z,98332.57
2019-06-15T08:23:21.513Z,98350.72
2019-06-15T08:28:42.974Z,98330.52
2019-06-15T08:34:04.730Z,98330.44
2019-06-15T08:39:26.657Z,98349.91
2019-06-15T08:44:48.363Z,98356.10
2019-06-15T08:50:11.346Z,98360.12
2019-06-15T08:55:33.358Z,98348.99
2019-06-15T09:00:55.171Z,98341.72
2019-06-15T09:06:16.831Z,98341.95
2019-06-15T09:11:38.550Z,98340.92
2019-06-15T09:17:00.323Z,98360.37
2019-06-15T09:22:22.065Z,98340.73
2019-06-15T09:27:43.576Z,98341.92
2019-06-15T09:33:05.333Z,98339.97
2019-06-15T09:38:26.989Z,98357.20
2019-06-15T09:43:48.845Z,98359.67
2019-06-15T09:49:10.408Z,98376.13
2019-06-15T09:54:31.700Z,98351.97
2019-06-15T09:59:53.535Z,98356.37
2019-06-15T10:05:15.001Z,98350.77
2019-06-15T10:10:36.435Z,98365.61
2019-06-15T10:15:58.481Z,98376.13
2019-06-15T10:21:19.724Z,98355.77
2019-06-15T10:26:41.534Z,98348.04
2019-06-15T10:32:03.081Z,98357.73
2019-06-15T10:37:24.888Z,98331.73
2019-06-15T10:42:47.026Z,98363.88
2019-06-15T10:48:08.556Z,98359.30
2019-06-15T10:53:30.203Z,98333.31
2019-06-15T10:58:51.627Z,98331.57
2019-06-15T11:04:13.271Z,98324.69
2019-06-15T11:09:35.067Z,98316.37
2019-06-15T11:14:56.647Z,98310.38
2019-06-15T11:20:18.256Z,98301.80
2019-06-15T11:25:39.631Z,98286.23
2019-06-15T11:31:01.596Z,98290.29
2019-06-15T11:36:23.314Z,98284.38
2019-06-15T11:41:45.033Z,98284.94
2019-06-15T11:47:06.488Z,98284.53
2019-06-15T11:52:28.252Z,98280.53
2019-06-15T11:57:50.002Z,98272.28
2019-06-15T12:03:13.249Z,98280.28
2019-06-15T12:08:35.128Z,98288.03
2019-06-15T12:13:56.251Z,98275.84
2019-06-15T12:19:18.014Z,98278.08
2019-06-15T12:24:39.774Z,98297.38
2019-06-15T12:30:01.389Z,98263.83
2019-06-15T12:35:23.077Z,98253.76
2019-06-15T12:40:44.557Z,98241.02
2019-06-15T12:46:06.364Z,98240.08
2019-06-15T12:51:28.543Z,98239.91
2019-06-15T12:56:50.523Z,98231.90
2019-06-15T13:02:12.084Z,98224.82
2019-06-15T13:07:34.715Z,98194.64
2019-06-15T13:12:58.769Z,98222.39
2019-06-15T13:18:20.368Z,98220.08
2019-06-15T13:23:41.881Z,98218.61
2019-06-15T13:29:03.561Z,98221.31
2019-06-15T13:34:25.485Z,98226.38
2019-06-15T13:39:47.054Z,98224.77
2019-06-15T13:45:09.305Z,98231.25
2019-06-15T13:50:31.147Z,98230.45
2019-06-15T13:55:52.674Z,98225.86
2019-06-15T14:01:14.213Z,98224.98
2019-06-15T14:06:37.397Z,98205.02
2019-06-15T14:11:59.674Z,98211.52
2019-06-15T14:17:21.527Z,98202.20
2019-06-15T14:22:43.566Z,98206.62
2019-06-15T14:28:05.202Z,98207.35
2019-06-15T14:33:26.706Z,98191.36
2019-06-15T14:38:48.545Z,98192.52
2019-06-15T14:44:12.140Z,98186.50
2019-06-15T14:49:33.897Z,98167.73
2019-06-15T14:54:56.679Z,98180.92
2019-06-15T15:00:18.360Z,98176.34
2019-06-15T15:05:40.082Z,98176.40
2019-06-15T15:11:01.825Z,98182.67
2019-06-15T15:16:23.915Z,98198.92
2019-06-15T15:21:46.267Z,98178.66
2019-06-15T15:27:08.448Z,98177.63
2019-06-15T15:32:31.734Z,98175.78
2019-06-15T15:37:56.565Z,98188.05
2019-06-15T15:43:17.378Z,98178.77
2019-06-15T15:48:38.853Z,98183.50
2019-06-15T15:54:00.948Z,98010.41
2019-06-15T15:59:22.831Z,98182.78
2019-06-15T16:04:46.860Z,98180.45
2019-06-15T16:10:08.187Z,98198.05
2019-06-15T16:15:29.473Z,98212.20
2019-06-15T16:20:51.368Z,98216.82
2019-06-15T16:26:12.953Z,98219.78
2019-06-15T16:31:37.214Z,98215.61
2019-06-15T16:36:58.268Z,98224.75
2019-06-15T16:42:20.489Z,98230.38
2019-06-15T16:47:42.461Z,98223.95
2019-06-15T16:53:04.092Z,98243.77
2019-06-15T16:58:26.561Z,98255.81
2019-06-15T17:03:48.098Z,98260.01
2019-06-15T17:09:11.477Z,98225.66
2019-06-15T17:14:32.969Z,98236.06
2019-06-15T17:19:56.822Z,98222.14
2019-06-15T17:25:18.509Z,98239.91
2019-06-15T17:30:40.244Z,98250.88
2019-06-15T17:36:03.332Z,98243.71
2019-06-15T17:41:26.544Z,98241.88
2019-06-15T17:46:48.087Z,98253.51
2019-06-15T17:52:09.697Z,98241.59
2019-06-15T17:57:31.574Z,98247.98
2019-06-15T18:02:53.189Z,98210.34
2019-06-15T18:08:16.507Z,98294.01
2019-06-15T18:13:39.034Z,98265.20
2019-06-15T18:19:00.425Z,98289.78
2019-06-15T18:24:22.203Z,98283.08
2019-06-15T18:29:46.281Z,98296.09
2019-06-15T18:35:07.346Z,98293.22
2019-06-15T18:40:29.329Z,98308.63
2019-06-15T18:45:50.864Z,98318.57
2019-06-15T18:51:12.795Z,98331.21
2019-06-15T18:56:36.372Z,98351.98
2019-06-15T19:01:57.927Z,98331.19
2019-06-15T19:07:19.691Z,98349.09
2019-06-15T19:12:41.808Z,98374.60
2019-06-15T19:18:03.436Z,98348.05
2019-06-15T19:23:26.520Z,98354.91
2019-06-15T19:28:48.378Z,98327.62
2019-06-15T19:34:09.783Z,98325.77
2019-06-15T19:39:31.583Z,98360.84
2019-06-15T19:44:53.236Z,98345.86
2019-06-15T19:50:16.827Z,98343.10
2019-06-15T19:55:38.560Z,98314.17
2019-06-15T20:01:00.231Z,98325.73
2019-06-15T20:06:22.250Z,98324.95
2019-06-15T20:11:46.642Z,98330.73
2019-06-15T20:17:07.510Z,98317.19
2019-06-15T20:22:29.994Z,98317.14
2019-06-15T20:27:51.446Z,98302.31
2019-06-15T20:33:13.347Z,98325.07
2019-06-15T20:38:36.335Z,98296.48
2019-06-15T20:43:58.331Z,98290.66
2019-06-15T20:49:20.213Z,98282.42
2019-06-15T20:54:41.952Z,98337.73
2019-06-15T21:00:06.197Z,98283.13
2019-06-15T21:05:37.784Z,98275.82
2019-06-15T21:10:52.018Z,98264.28
2019-06-15T21:16:13.343Z,98251.23
2019-06-15T21:21:37.337Z,98257.48
2019-06-15T21:26:58.979Z,98245.20
2019-06-15T21:32:20.836Z,98246.63
2019-06-15T21:37:42.267Z,98238.67
2019-06-15T21:43:06.805Z,98236.38
2019-06-15T21:48:27.798Z,98239.25
2019-06-15T21:53:49.442Z,98227.84
2019-06-15T21:59:11.231Z,98230.20
2019-06-15T22:04:33.148Z,98232.75
2019-06-15T22:09:54.976Z,98231.19
2019-06-15T22:15:17.847Z,98221.49
2019-06-15T22:20:39.562Z,98218.76
2019-06-15T22:26:00.992Z,98219.27
2019-06-15T22:31:22.627Z,98212.78
2019-06-15T22:36:44.120Z,98212.09
2019-06-15T22:42:06.857Z,98215.14
2019-06-15T22:47:28.676Z,98217.54
2019-06-15T22:52:50.330Z,98211.74
2019-06-15T22:58:11.824Z,98211.30
2019-06-15T23:03:33.694Z,98217.87
2019-06-15T23:08:56.538Z,98209.38
2019-06-15T23:14:18.237Z,98204.94
2019-06-15T23:19:39.935Z,98213.57
2019-06-15T23:25:01.670Z,98205.28
2019-06-15T23:30:23.234Z,98202.70
2019-06-15T23:35:50.700Z,98203.18
2019-06-15T23:41:12.633Z,98197.91
2019-06-15T23:46:36.116Z,98190.42
2019-06-15T23:51:57.839Z,98190.34
2019-06-15T23:57:19.931Z,98188.27
